createdAt,value
2022-10-03T00:01:02.994Z,7.20
2022-10-03T00:03:51.068Z,7.15
2022-10-03T00:06:55.904Z,6.78
2022-10-03T00:09:57.416Z,7.72
2022-10-03T00:12:33.858Z,7.30
2022-10-03T00:15:16.186Z,7.82
2022-10-03T00:18:12.319Z,7.70
2022-10-03T00:20:39.745Z,7.68
2022-10-03T00:23:47.773Z,7.68
2022-10-03T00:26:27.406Z,7.30
2022-10-03T00:29:32.820Z,7.07
2022-10-03T00:32:12.447Z,7.43
2022-10-03T00:35:06.971Z,6.97
2022-10-03T00:37:39.619Z,6.80
2022-10-03T00:40:20.016Z,7.45
2022-10-03T00:42:53.012Z,7.28
2022-10-03T00:45:50.898Z,7.25
2022-10-03T00:48:38.459Z,6.95
2022-10-03T00:51:26.232Z,7.70
2022-10-03T00:54:07.017Z,7.93
2022-10-03T00:56:54.880Z,7.57
2022-10-03T00:59:30.947Z,7.28
2022-10-03T01:01:59.499Z,7.72
2022-10-03T01:05:02.001Z,7.80
2022-10-03T01:07:33.238Z,8.23
2022-10-03T01:10:22.904Z,8.82
2022-10-03T01:12:52.940Z,7.80
2022-10-03T01:15:48.829Z,7.70
2022-10-03T01:18:21.377Z,7.47
2022-10-03T01:21:07.665Z,8.23
2022-10-03T01:23:46.775Z,8.20
2022-10-03T01:26:34.691Z,7.95
2022-10-03T01:29:33.114Z,6.68
2022-10-03T01:32:09.206Z,7.22
2022-10-03T01:34:42.362Z,7.50
2022-10-03T01:37:30.059Z,8.73
2022-10-03T01:40:19.837Z,9.40
2022-10-03T01:42:56.285Z,9.05
2022-10-03T01:45:29.878Z,7.85
2022-10-03T01:48:15.256Z,7.60
2022-10-03T01:50:58.518Z,8.05
2022-10-03T01:53:48.509Z,7.57
2022-10-03T01:56:48.509Z,7.65
2022-10-03T01:59:35.180Z,7.25
2022-10-03T02:02:13.848Z,8.93
2022-10-03T02:04:50.532Z,8.68
2022-10-03T02:07:35.477Z,8.05
2022-10-03T02:10:21.593Z,8.82
2022-10-03T02:13:19.256Z,8.18
2022-10-03T02:16:04.784Z,8.82
2022-10-03T02:18:54.784Z,6.93
2022-10-03T02:21:27.386Z,7.45
2022-10-03T02:24:14.945Z,8.30
2022-10-03T02:26:51.199Z,7.68
2022-10-03T02:29:39.105Z,7.80
2022-10-03T02:32:37.096Z,7.25
2022-10-03T02:35:27.922Z,7.13
2022-10-03T02:38:18.902Z,8.05
2022-10-03T02:41:05.510Z,8.52
2022-10-03T02:43:44.854Z,8.13
2022-10-03T02:46:33.225Z,8.75
2022-10-03T02:49:12.345Z,8.13
2022-10-03T02:51:48.737Z,8.77
2022-10-03T02:54:49.357Z,9.23
2022-10-03T02:57:41.722Z,8.30
2022-10-03T03:00:23.908Z,8.10
2022-10-03T03:03:06.048Z,7.85
2022-10-03T03:05:53.541Z,8.70
2022-10-03T03:08:44.313Z,9.40
2022-10-03T03:11:27.635Z,8.85
2022-10-03T03:14:22.810Z,7.95
2022-10-03T03:17:08.799Z,8.43
2022-10-03T03:20:13.535Z,8.43
2022-10-03T03:23:03.283Z,8.80
2022-10-03T03:25:55.372Z,10.20
2022-10-03T03:28:25.824Z,9.35
2022-10-03T03:31:09.529Z,11.23
2022-10-03T03:34:04.718Z,11.15
2022-10-03T03:36:41.585Z,11.15
2022-10-03T03:39:40.877Z,11.05
2022-10-03T03:42:22.360Z,9.00
2022-10-03T03:45:07.692Z,8.93
2022-10-03T03:47:43.257Z,10.90
2022-10-03T03:50:28.078Z,9.50
2022-10-03T03:53:24.741Z,9.98
2022-10-03T03:56:07.323Z,10.50
2022-10-03T03:58:40.634Z,11.68
2022-10-03T04:01:17.470Z,12.38
2022-10-03T04:03:53.672Z,10.98
2022-10-03T04:06:46.266Z,13.38
2022-10-03T04:12:18.556Z,14.07
2022-10-03T04:14:56.124Z,12.20
2022-10-03T04:17:59.853Z,11.63
2022-10-03T04:20:45.835Z,12.57
2022-10-03T04:23:37.282Z,11.35
2022-10-03T04:26:18.972Z,11.63
2022-10-03T04:29:07.751Z,11.85
2022-10-03T04:31:57.256Z,10.70
2022-10-03T04:35:09.902Z,12.23
2022-10-03T04:37:48.938Z,9.23
2022-10-03T04:40:24.905Z,9.02
2022-10-03T04:43:16.754Z,9.15
2022-10-03T04:46:06.193Z,8.67
2022-10-03T04:48:58.031Z,9.13
2022-10-03T04:51:28.284Z,10.30
2022-10-03T04:54:04.188Z,9.93
2022-10-03T04:56:57.108Z,10.57
2022-10-03T04:59:44.940Z,10.55
2022-10-03T05:02:27.776Z,11.00
2022-10-03T05:05:21.996Z,11.95
2022-10-03T05:08:02.966Z,10.13
2022-10-03T05:11:05.808Z,9.77
2022-10-03T05:16:29.241Z,9.80
2022-10-03T05:19:24.051Z,9.73
2022-10-03T05:22:30.624Z,10.18
2022-10-03T05:25:18.314Z,11.77
2022-10-03T05:27:59.153Z,9.50
2022-10-03T05:30:53.534Z,10.00
2022-10-03T05:33:43.589Z,9.38
2022-10-03T05:36:25.983Z,9.63
2022-10-03T05:42:17.799Z,11.77
2022-10-03T05:44:43.852Z,8.43
2022-10-03T05:47:42.361Z,8.70
2022-10-03T05:50:30.283Z,7.95
2022-10-03T05:53:36.553Z,9.63
2022-10-03T05:56:26.767Z,8.93
2022-10-03T05:58:57.010Z,8.65
2022-10-03T06:01:50.563Z,9.00
2022-10-03T06:04:36.479Z,9.20
2022-10-03T06:07:25.367Z,9.00
2022-10-03T06:10:07.436Z,9.25
2022-10-03T06:12:49.786Z,10.55
2022-10-03T06:15:39.357Z,10.80
2022-10-03T06:18:32.299Z,10.52
2022-10-03T06:21:36.775Z,10.15
2022-10-03T06:24:35.272Z,11.68
2022-10-03T06:27:05.436Z,10.93
2022-10-03T06:30:05.501Z,11.68
2022-10-03T06:33:03.987Z,11.23
2022-10-03T06:35:50.267Z,10.30
2022-10-03T06:38:34.858Z,9.80
2022-10-03T06:41:23.335Z,9.68
2022-10-03T06:44:18.074Z,10.15
2022-10-03T06:47:22.957Z,10.65
2022-10-03T06:50:14.082Z,10.50
2022-10-03T06:52:52.247Z,10.65
2022-10-03T06:55:56.963Z,12.18
2022-10-03T06:58:43.321Z,12.73
2022-10-03T07:01:48.541Z,12.45
2022-10-03T07:04:40.148Z,12.43
2022-10-03T07:07:13.173Z,14.05
2022-10-03T07:10:01.566Z,15.27
2022-10-03T07:12:46.062Z,15.13
2022-10-03T07:15:19.373Z,13.02
2022-10-03T07:18:10.680Z,11.75
2022-10-03T07:21:08.048Z,12.93
2022-10-03T07:24:02.960Z,13.05
2022-10-03T07:26:54.362Z,12.60
2022-10-03T07:29:50.447Z,11.93
2022-10-03T07:32:34.754Z,13.25
2022-10-03T07:35:53.214Z,12.50
2022-10-03T07:39:09.811Z,12.90
2022-10-03T07:41:47.766Z,13.23
2022-10-03T07:44:33.879Z,12.90
2022-10-03T07:47:50.215Z,12.85
2022-10-03T07:50:44.957Z,11.25
2022-10-03T07:53:34.747Z,11.75
2022-10-03T07:56:34.971Z,10.38
2022-10-03T07:59:11.549Z,10.77
2022-10-03T08:02:02.972Z,10.88
2022-10-03T08:04:36.102Z,11.60
2022-10-03T08:07:20.820Z,12.40
2022-10-03T08:09:54.422Z,12.45
2022-10-03T08:12:49.157Z,12.43
2022-10-03T08:15:39.987Z,13.48
2022-10-03T08:18:26.160Z,13.68
2022-10-03T08:21:29.149Z,13.70
2022-10-03T08:24:00.405Z,13.43
2022-10-03T08:26:33.892Z,12.75
2022-10-03T08:29:25.072Z,11.48
2022-10-03T08:32:21.562Z,11.23
2022-10-03T08:35:11.998Z,11.00
2022-10-03T08:38:10.549Z,10.93
2022-10-03T08:40:59.325Z,10.63
2022-10-03T08:43:51.204Z,11.43
2022-10-03T08:46:47.401Z,11.90
2022-10-03T08:49:45.646Z,12.70
2022-10-03T08:52:39.579Z,11.45
2022-10-03T08:55:33.972Z,11.35
2022-10-03T08:58:25.275Z,11.82
2022-10-03T09:01:17.371Z,12.68
2022-10-03T09:04:09.901Z,11.65
2022-10-03T09:06:58.713Z,12.18
2022-10-03T09:09:39.774Z,13.30
2022-10-03T09:12:34.140Z,14.30
2022-10-03T09:15:16.302Z,12.32
2022-10-03T09:18:22.874Z,13.63
2022-10-03T09:21:15.649Z,14.45
2022-10-03T09:24:18.571Z,13.68
2022-10-03T09:27:12.435Z,11.60
2022-10-03T09:30:04.576Z,12.07
2022-10-03T09:33:05.178Z,13.55
2022-10-03T09:35:56.849Z,12.48
2022-10-03T09:38:45.979Z,11.70
2022-10-03T09:41:45.234Z,13.35
2022-10-03T09:44:43.605Z,10.68
2022-10-03T09:47:33.047Z,12.40
2022-10-03T09:50:00.392Z,12.65
2022-10-03T09:52:39.718Z,13.18
2022-10-03T09:55:25.741Z,12.75
2022-10-03T09:58:16.507Z,12.98
2022-10-03T10:01:27.515Z,13.90
2022-10-03T10:04:01.021Z,13.60
2022-10-03T10:07:11.788Z,13.55
2022-10-03T10:10:00.244Z,11.85
2022-10-03T10:12:39.600Z,12.63
2022-10-03T10:15:28.859Z,12.35
2022-10-03T10:18:29.647Z,13.55
2022-10-03T10:21:34.265Z,13.93
2022-10-03T10:24:01.651Z,14.40
2022-10-03T10:26:47.822Z,13.07
2022-10-03T10:29:56.221Z,13.15
2022-10-03T10:32:51.261Z,14.23
2022-10-03T10:35:33.651Z,13.07
2022-10-03T10:40:55.355Z,12.77
2022-10-03T10:43:34.737Z,12.75
2022-10-03T10:46:37.346Z,13.45
2022-10-03T10:49:42.320Z,12.75
2022-10-03T10:52:31.842Z,12.18
2022-10-03T10:55:23.853Z,12.52
2022-10-03T10:58:28.094Z,13.35
2022-10-03T11:01:10.304Z,12.77
2022-10-03T11:04:15.111Z,13.48
2022-10-03T11:06:53.504Z,12.57
2022-10-03T11:09:54.887Z,14.02
2022-10-03T11:12:45.784Z,12.10
2022-10-03T11:15:33.933Z,13.07
2022-10-03T11:18:08.366Z,13.43
2022-10-03T11:21:07.218Z,13.02
2022-10-03T11:23:52.938Z,11.85
2022-10-03T11:27:02.274Z,11.50
2022-10-03T11:30:07.486Z,11.55
2022-10-03T11:33:12.184Z,13.60
2022-10-03T11:36:13.699Z,12.52
2022-10-03T11:39:03.617Z,12.15
2022-10-03T11:41:43.351Z,11.48
2022-10-03T11:44:22.484Z,12.55
2022-10-03T11:47:03.140Z,10.68
2022-10-03T11:49:49.515Z,10.95
2022-10-03T11:52:25.711Z,11.15
2022-10-03T11:55:18.273Z,11.98
2022-10-03T11:57:59.638Z,12.82
2022-10-03T12:00:33.180Z,14.45
2022-10-03T12:03:09.279Z,14.77
2022-10-03T12:05:42.392Z,14.75
2022-10-03T12:08:53.082Z,14.77
2022-10-03T12:11:41.842Z,14.02
2022-10-03T12:14:21.359Z,13.20
2022-10-03T12:16:58.463Z,12.00
2022-10-03T12:19:34.847Z,10.27
2022-10-03T12:22:09.037Z,10.93
2022-10-03T12:24:45.182Z,10.68
2022-10-03T12:28:00.627Z,10.82
2022-10-03T12:30:45.164Z,9.90
2022-10-03T12:33:43.093Z,10.02
2022-10-03T12:36:29.379Z,11.88
2022-10-03T12:38:59.973Z,11.02
2022-10-03T12:41:52.008Z,11.60
2022-10-03T12:44:46.121Z,10.93
2022-10-03T12:47:50.679Z,10.25
2022-10-03T12:50:50.428Z,11.38
2022-10-03T12:53:17.768Z,9.23
2022-10-03T12:56:03.186Z,12.30
2022-10-03T12:58:56.297Z,11.82
2022-10-03T13:02:00.099Z,12.80
2022-10-03T13:04:39.720Z,11.38
2022-10-03T13:07:44.384Z,12.82
2022-10-03T13:10:20.382Z,13.32
2022-10-03T13:12:55.731Z,11.65
2022-10-03T13:16:08.850Z,12.95
2022-10-03T13:18:43.501Z,12.77
2022-10-03T13:21:46.463Z,12.43
2022-10-03T13:24:32.423Z,14.82
2022-10-03T13:27:19.339Z,15.13
2022-10-03T13:30:24.415Z,14.82
2022-10-03T13:33:00.266Z,14.40
2022-10-03T13:35:58.602Z,15.35
2022-10-03T13:38:47.862Z,15.18
2022-10-03T13:41:27.401Z,16.83
2022-10-03T13:44:17.766Z,16.35
2022-10-03T13:47:14.034Z,15.65
2022-10-03T13:49:55.036Z,16.80
2022-10-03T13:52:29.393Z,18.55
2022-10-03T13:55:02.382Z,18.90
2022-10-03T13:57:55.329Z,16.85
2022-10-03T14:00:29.397Z,15.60
2022-10-03T14:03:19.408Z,18.00
2022-10-03T14:06:10.189Z,16.88
2022-10-03T14:08:53.447Z,16.92
2022-10-03T14:11:43.697Z,15.10
2022-10-03T14:14:34.249Z,15.60
2022-10-03T14:17:11.446Z,16.27
2022-10-03T14:19:50.595Z,15.00
2022-10-03T14:22:52.195Z,14.82
2022-10-03T14:25:30.293Z,14.25
2022-10-03T14:28:28.523Z,18.25
2022-10-03T14:31:17.434Z,18.08
2022-10-03T14:34:10.951Z,18.73
2022-10-03T14:37:08.344Z,20.10
2022-10-03T14:39:59.373Z,20.08
2022-10-03T14:42:54.776Z,20.25
2022-10-03T14:45:29.755Z,20.20
2022-10-03T14:48:14.031Z,20.85
2022-10-03T14:50:42.781Z,20.95
2022-10-03T14:53:12.967Z,21.67
2022-10-03T14:55:47.328Z,21.00
2022-10-03T14:58:22.048Z,20.25
2022-10-03T15:01:14.191Z,21.70
2022-10-03T15:03:53.546Z,20.85
2022-10-03T15:06:39.020Z,20.20
2022-10-03T15:09:12.935Z,19.77
2022-10-03T15:11:52.880Z,20.00
2022-10-03T15:14:23.414Z,20.02
2022-10-03T15:16:56.287Z,19.70
2022-10-03T15:19:38.996Z,19.60
2022-10-03T15:22:21.119Z,19.63
2022-10-03T15:24:51.093Z,20.33
2022-10-03T15:27:21.956Z,20.77
2022-10-03T15:29:59.076Z,20.17
2022-10-03T15:32:37.378Z,19.80
2022-10-03T15:35:06.463Z,18.98
2022-10-03T15:37:45.405Z,19.13
2022-10-03T15:40:44.034Z,20.95
2022-10-03T15:43:28.346Z,19.80
2022-10-03T15:45:57.996Z,21.95
2022-10-03T15:48:28.997Z,20.85
2022-10-03T15:50:58.903Z,19.83
2022-10-03T15:53:37.763Z,20.58
2022-10-03T15:56:17.741Z,19.95
2022-10-03T15:58:52.882Z,20.48
2022-10-03T16:01:47.200Z,20.83
2022-10-03T16:04:29.073Z,20.60
2022-10-03T16:07:22.243Z,21.02
2022-10-03T16:10:14.744Z,19.98
2022-10-03T16:12:59.408Z,19.77
2022-10-03T16:15:37.912Z,21.13
2022-10-03T16:18:48.276Z,19.33
2022-10-03T16:21:30.428Z,20.30
2022-10-03T16:23:59.598Z,21.27
2022-10-03T16:26:41.888Z,22.40
2022-10-03T16:29:23.958Z,25.40
2022-10-03T16:32:18.961Z,24.45
2022-10-03T16:34:48.537Z,22.02
2022-10-03T16:37:23.755Z,26.27
2022-10-03T16:40:06.247Z,24.90
2022-10-03T16:42:42.686Z,32.70
2022-10-03T16:45:33.593Z,32.50
2022-10-03T16:48:28.349Z,26.17
2022-10-03T16:50:56.708Z,24.83
2022-10-03T16:53:24.406Z,28.77
2022-10-03T16:56:15.370Z,29.10
2022-10-03T16:59:10.723Z,25.00
2022-10-03T17:01:50.573Z,25.23
2022-10-03T17:04:37.799Z,23.45
2022-10-03T17:07:23.135Z,23.90
2022-10-03T17:09:52.428Z,23.42
2022-10-03T17:12:27.702Z,22.70
2022-10-03T17:15:02.076Z,21.90
2022-10-03T17:17:48.238Z,23.40
2022-10-03T17:20:47.968Z,21.73
2022-10-03T17:23:53.404Z,22.25
2022-10-03T17:26:34.202Z,23.33
2022-10-03T17:29:24.046Z,23.73
2022-10-03T17:32:00.432Z,25.80
2022-10-03T17:34:33.698Z,24.58
2022-10-03T17:37:28.870Z,24.00
2022-10-03T17:40:17.292Z,25.10
2022-10-03T17:42:52.893Z,24.48
2022-10-03T17:45:44.819Z,24.30
2022-10-03T17:48:19.834Z,25.40
2022-10-03T17:51:31.464Z,25.35
2022-10-03T17:54:06.338Z,25.27
2022-10-03T17:56:35.023Z,24.73
2022-10-03T17:59:14.145Z,25.23
2022-10-03T18:01:44.797Z,24.80
2022-10-03T18:04:19.155Z,23.63
2022-10-03T18:06:51.897Z,23.35
2022-10-03T18:09:40.523Z,22.52
2022-10-03T18:12:17.944Z,21.77
2022-10-03T18:15:02.221Z,23.38
2022-10-03T18:17:44.969Z,23.27
2022-10-03T18:20:50.007Z,23.00
2022-10-03T18:23:49.950Z,24.52
2022-10-03T18:26:38.316Z,24.85
2022-10-03T18:29:27.325Z,25.60
2022-10-03T18:32:21.395Z,25.48
2022-10-03T18:35:19.192Z,24.77
2022-10-03T18:37:46.702Z,23.67
2022-10-03T18:40:26.654Z,23.55
2022-10-03T18:42:55.064Z,24.77
2022-10-03T18:45:30.707Z,23.73
2022-10-03T18:48:11.410Z,24.45
2022-10-03T18:50:50.347Z,23.85
2022-10-03T18:53:57.304Z,23.15
2022-10-03T18:56:27.083Z,23.38
2022-10-03T18:58:54.430Z,23.52
2022-10-03T19:01:46.350Z,22.42
2022-10-03T19:04:20.851Z,23.10
2022-10-03T19:06:53.489Z,22.55
2022-10-03T19:09:29.250Z,22.08
2022-10-03T19:12:20.991Z,21.50
2022-10-03T19:15:12.966Z,22.05
2022-10-03T19:17:55.139Z,22.33
2022-10-03T19:20:29.915Z,22.02
2022-10-03T19:23:19.649Z,23.60
2022-10-03T19:25:53.014Z,22.75
2022-10-03T19:28:30.761Z,21.45
2022-10-03T19:31:17.297Z,21.15
2022-10-03T19:33:52.312Z,21.02
2022-10-03T19:36:22.922Z,22.35
2022-10-03T19:38:53.102Z,21.15
2022-10-03T19:41:28.097Z,21.38
2022-10-03T19:43:57.051Z,21.45
2022-10-03T19:46:47.779Z,21.05
2022-10-03T19:49:44.723Z,21.90
2022-10-03T19:52:41.789Z,22.25
2022-10-03T19:55:24.805Z,22.35
2022-10-03T19:58:20.865Z,23.67
2022-10-03T20:00:56.472Z,23.88
2022-10-03T20:03:38.478Z,22.67
2022-10-03T20:06:11.227Z,24.98
2022-10-03T20:09:00.030Z,25.65
2022-10-03T20:12:00.726Z,24.95
2022-10-03T20:14:36.858Z,26.98
2022-10-03T20:17:14.095Z,25.67
2022-10-03T20:20:09.755Z,28.15
2022-10-03T20:22:37.538Z,28.05
2022-10-03T20:25:18.002Z,28.92
2022-10-03T20:27:53.931Z,27.52
2022-10-03T20:30:46.071Z,26.50
2022-10-03T20:33:24.503Z,26.50
2022-10-03T20:36:06.727Z,27.85
2022-10-03T20:39:02.684Z,26.13
2022-10-03T20:41:42.323Z,27.48
2022-10-03T20:44:27.966Z,27.13
2022-10-03T20:47:07.449Z,27.60
2022-10-03T20:49:42.088Z,28.20
2022-10-03T20:52:18.657Z,26.20
2022-10-03T20:54:50.506Z,25.75
2022-10-03T20:57:28.307Z,23.77
2022-10-03T21:00:19.109Z,24.40
2022-10-03T21:02:55.440Z,23.23
2022-10-03T21:05:36.318Z,23.55
2022-10-03T21:08:11.247Z,24.17
2022-10-03T21:10:43.239Z,24.25
2022-10-03T21:13:53.066Z,22.10
2022-10-03T21:16:22.162Z,23.13
2022-10-03T21:18:52.301Z,21.60
2022-10-03T21:21:26.900Z,21.95
2022-10-03T21:24:17.936Z,21.58
2022-10-03T21:26:55.176Z,22.63
2022-10-03T21:29:29.283Z,21.48
2022-10-03T21:32:21.366Z,19.55
2022-10-03T21:35:16.438Z,19.85
2022-10-03T21:38:03.915Z,19.88
2022-10-03T21:41:03.604Z,18.73
2022-10-03T21:43:43.624Z,19.75
2022-10-03T21:46:17.187Z,19.73
2022-10-03T21:49:05.852Z,18.13
2022-10-03T21:52:00.913Z,18.60
2022-10-03T21:54:48.428Z,19.33
2022-10-03T21:57:43.346Z,17.92
2022-10-03T22:00:26.914Z,18.45
2022-10-03T22:03:05.987Z,17.38
2022-10-03T22:05:49.192Z,17.33
2022-10-03T22:08:30.356Z,16.80
2022-10-03T22:11:19.559Z,15.93
2022-10-03T22:14:16.498Z,16.40
2022-10-03T22:17:21.449Z,15.55
2022-10-03T22:20:12.554Z,15.25
2022-10-03T22:22:49.162Z,15.18
2022-10-03T22:25:29.699Z,15.57
2022-10-03T22:28:32.627Z,15.25
2022-10-03T22:36:19.638Z,14.18
2022-10-03T22:38:49.448Z,14.80
2022-10-03T22:41:21.161Z,14.82
2022-10-03T22:43:49.858Z,14.50
2022-10-03T22:46:25.895Z,13.88
2022-10-03T22:49:06.219Z,13.23
2022-10-03T22:51:35.201Z,15.15
2022-10-03T22:54:09.491Z,13.40
2022-10-03T22:56:45.485Z,12.68
2022-10-03T22:59:22.689Z,12.80
2022-10-03T23:01:52.556Z,12.65
2022-10-03T23:04:50.052Z,12.75
2022-10-03T23:07:26.630Z,13.07
2022-10-03T23:09:56.797Z,11.82
2022-10-03T23:12:30.948Z,11.93
2022-10-03T23:15:01.843Z,10.55
2022-10-03T23:17:50.796Z,11.30
2022-10-03T23:20:33.202Z,12.52
2022-10-03T23:23:05.564Z,11.90
2022-10-03T23:25:50.786Z,11.32
2022-10-03T23:28:25.051Z,11.55
2022-10-03T23:30:54.243Z,11.00
2022-10-03T23:33:33.868Z,11.35
2022-10-03T23:36:13.471Z,11.45
2022-10-03T23:38:40.814Z,11.13
2022-10-03T23:41:23.076Z,11.68
2022-10-03T23:43:56.951Z,11.98
2022-10-03T23:46:30.086Z,11.30
2022-10-03T23:49:00.308Z,11.13
2022-10-03T23:51:32.776Z,11.10
2022-10-03T23:54:04.483Z,10.77
2022-10-03T23:56:34.634Z,10.90
2022-10-03T23:59:07.506Z,11.82
